Decoded Metar for LFPB (PARIS LE BOURGET in FRANCE) (IATA:LBG) | Meteo·Mobile Aviation Weather
aviador You're here:

LFPB Decoded Metar

PARIS LE BOURGET in FRANCE
Report Time2018-08-21 07:30:00
UTC Time2018-08-21 07:51:43
Flight Rules vfr VFR
Wind360° at 04 kt
W.Decomp.*RWY 03: 3.5 kt HW 1.9 kt LCW
RWY 07: 1.4 kt HW 3.7 kt LCW
RWY 09: 0.1 kt HW 4 kt LCW
Visibility9999 m
Phenomena:N/A
Clouds:Overcast 048 Hf
Expected CloudBase > 1,600 ft AGL from Temp-Dew spread
Ceiling4,800 ft
Temp20°C (ISA +5)
Dew Point16°C (78% RH)
QNH1021 hPa
Density Alt820 ft
Elevation213 ft
Report Wrong Elevation
Raw Report
METAR LFPB 210730Z AUTO 36004KT 330V030 9999 OVC048 20/16 Q1021 NOSIG=

Extra information for LFPB:More info

Metar Taf Metar & Taf Last 4 Metars F.Rules Stats Wind Profile Meteogram Temp Stats Airport Information Weather charts Add Link Nearby VenuesMetar ALERT Operation Metar Decoded Social comments